KHOB Airport (Lea County Rgnl) Information

FAA: HOB - ICAO: KHOB

KHOB Airport Location

State New Mexico
County Lea
City Hobbs
KHOB Airport is 4 miles west of Hobbs, NM.
Latitude 32-41-15.0000N
Longitude 103-13-02.4000W
Elevation 3,660ft

KHOB Airport METARs

METAR KHOB 060655Z AUTO 16006KT 10SM CLR 23/15 A3001 RMK AO2
Altimeter 30.01"
Temperature 23.0°C (73.4°F)
Wind 160° at 6KT
Clouds Skies are clear.
Visibility 10.0mi
Time observed: 2022-07-06T06:55:00Z

KHOB Airport Details

Status Operational
Activation June 1942
Ownership Public
Usage Public
Chart ALBUQUERQUE
ATC on-site Yes
Beacon schedule sunset-sunrise
Beacon color clear green

KHOB Airport Contacts

Owner LEA COUNTY
Owner address COURTHOUSE BOX 5C, LOVINGTON, NM 88260
Owner phone 575-396-8521
Manager CHRISTOPHER CHAVEZ
Manager address PO BOX 188, DULCE, NM 87528
Manager phone (575) 759-4310

KHOB Airport (Lea County Rgnl) Radio Frequencies

KHOB (Airport) Radio Frequencies

UNICOM 122.95
Common traffic advisory frequency (CTAF) 120.65